Time;durP1;ratioP1;P1;durP2;ratioP2;P2;SDS_P1;SDS_P2;PMS_P1;PMS_P2;Temp;Humidity;BMP_temperature;BMP_pressure;BME280_temperature;BME280_humidity;BME280_pressure;Samples;Min_cycle;Max_cycle;Signal;HPM_P1;HPM_P2
2023/11/28 00:01:51;;;;;;;3.03;0.52;;;1.60;46.60;;;;;;4992163;28;20053;-63
2023/11/28 00:04:16;;;;;;;0.45;0.30;;;1.60;51.40;;;;;;5008898;28;20077;-64
2023/11/28 00:06:42;;;;;;;0.43;0.30;;;1.50;54.30;;;;;;5009977;28;20085;-63
2023/11/28 00:09:08;;;;;;;1.30;0.40;;;1.60;51.60;;;;;;5006409;28;20049;-64
2023/11/28 00:11:33;;;;;;;0.68;0.50;;;1.60;55.10;;;;;;4999183;28;20050;-64
2023/11/28 00:13:59;;;;;;;3.50;0.60;;;1.60;54.50;;;;;;5008556;28;20045;-64
2023/11/28 00:16:25;;;;;;;1.25;0.45;;;1.60;58.80;;;;;;5010416;28;20128;-69
2023/11/28 00:18:51;;;;;;;0.30;0.30;;;1.60;60.60;;;;;;5009410;28;20660;-72
2023/11/28 00:21:17;;;;;;;0.88;0.50;;;1.60;61.10;;;;;;4991999;28;20045;-77
2023/11/28 00:23:42;;;;;;;1.75;0.55;;;1.60;61.30;;;;;;5009806;28;20176;-64
2023/11/28 00:26:09;;;;;;;1.48;0.68;;;1.60;64.60;;;;;;4994628;28;20092;-78
2023/11/28 00:28:35;;;;;;;2.30;0.68;;;1.60;67.30;;;;;;5009589;28;20361;-64
2023/11/28 00:31:01;;;;;;;4.88;0.60;;;1.60;67.00;;;;;;5007650;28;20104;-74
2023/11/28 00:33:27;;;;;;;0.55;0.50;;;1.60;70.30;;;;;;5010199;28;20117;-70
2023/11/28 00:35:52;;;;;;;2.00;0.68;;;1.60;73.60;;;;;;5009134;28;20058;-79
2023/11/28 00:38:18;;;;;;;1.45;0.40;;;1.60;75.70;;;;;;5008698;28;20042;-81
2023/11/28 00:40:44;;;;;;;1.35;0.60;;;1.50;81.40;;;;;;5009678;28;20053;-64
2023/11/28 00:43:10;;;;;;;2.55;0.80;;;1.50;85.30;;;;;;5008481;28;20100;-64
2023/11/28 00:45:36;;;;;;;0.75;0.68;;;1.50;88.40;;;;;;5009841;28;20073;-73
2023/11/28 00:48:03;;;;;;;1.17;0.63;;;1.50;90.00;;;;;;4974544;28;20100;-64
2023/11/28 00:50:28;;;;;;;1.02;0.90;;;1.50;91.30;;;;;;5008719;28;20046;-83
2023/11/28 00:52:54;;;;;;;2.03;0.85;;;1.60;91.80;;;;;;4990996;28;20484;-81
2023/11/28 00:55:20;;;;;;;2.88;0.60;;;1.60;90.40;;;;;;5009529;28;20046;-76
2023/11/28 00:57:45;;;;;;;0.50;0.50;;;1.70;89.90;;;;;;4991397;28;20492;-64
2023/11/28 01:00:13;;;;;;;0.32;0.30;;;1.60;91.80;;;;;;4991125;28;20096;-79
2023/11/28 01:02:39;;;;;;;1.73;0.50;;;1.60;92.00;;;;;;5006070;28;20060;-64
2023/11/28 01:05:05;;;;;;;1.75;0.50;;;1.60;92.10;;;;;;4989556;28;20045;-81
2023/11/28 01:07:31;;;;;;;4.97;0.40;;;1.60;92.50;;;;;;4999946;28;20086;-64
2023/11/28 01:09:57;;;;;;;1.65;0.50;;;1.60;93.60;;;;;;4995477;28;20133;-78
2023/11/28 01:12:23;;;;;;;2.45;0.52;;;1.60;93.10;;;;;;4996183;28;20749;-64
2023/11/28 01:14:49;;;;;;;0.47;0.38;;;1.60;92.30;;;;;;4989404;28;20035;-64
2023/11/28 01:17:15;;;;;;;1.58;0.32;;;1.60;93.00;;;;;;4961626;28;20052;-74
2023/11/28 01:19:40;;;;;;;0.65;0.55;;;1.60;93.20;;;;;;5005789;28;20046;-64
2023/11/28 01:22:11;;;;;;;0.50;0.50;;;1.60;93.60;;;;;;4988786;28;20449;-64
2023/11/28 01:24:37;;;;;;;2.83;0.32;;;1.60;94.30;;;;;;4989930;28;20566;-81
2023/11/28 01:27:04;;;;;;;0.30;0.30;;;1.60;93.60;;;;;;4992245;28;20080;-64
2023/11/28 01:29:30;;;;;;;0.47;0.47;;;1.70;92.70;;;;;;4987934;28;20042;-74
2023/11/28 01:31:56;;;;;;;0.38;0.38;;;1.70;91.60;;;;;;4974288;28;20061;-71
2023/11/28 01:34:22;;;;;;;4.55;0.63;;;1.60;91.00;;;;;;4996781;28;20062;-78
2023/11/28 01:36:49;;;;;;;2.97;0.50;;;1.70;88.80;;;;;;5003237;28;20473;-64
2023/11/28 01:39:15;;;;;;;0.95;0.47;;;1.80;88.20;;;;;;4986680;28;20042;-65
2023/11/28 01:41:42;;;;;;;3.15;0.40;;;1.70;88.20;;;;;;4989360;28;20050;-69
2023/11/28 01:44:08;;;;;;;0.32;0.32;;;1.90;85.20;;;;;;4988809;28;20042;-64
2023/11/28 01:46:35;;;;;;;0.30;0.30;;;1.90;87.40;;;;;;4989384;28;20054;-85
2023/11/28 01:49:02;;;;;;;2.00;0.60;;;2.00;87.70;;;;;;4988326;28;20524;-85
2023/11/28 01:51:28;;;;;;;1.02;0.63;;;2.00;88.40;;;;;;4996698;28;20046;-64
2023/11/28 01:53:57;;;;;;;2.97;0.60;;;2.00;89.50;;;;;;4990520;28;20054;-64
2023/11/28 01:56:24;;;;;;;0.73;0.40;;;2.00;89.40;;;;;;5007966;28;20056;-82
2023/11/28 01:58:52;;;;;;;3.53;0.90;;;2.00;90.10;;;;;;5008829;28;20032;-65
2023/11/28 02:01:21;;;;;;;2.10;0.90;;;2.00;86.60;;;;;;5009190;28;20120;-65
2023/11/28 02:03:50;;;;;;;2.60;0.70;;;1.90;83.20;;;;;;4999593;28;20042;-65
2023/11/28 02:06:16;;;;;;;2.13;1.00;;;1.90;88.00;;;;;;4996648;28;20049;-79
2023/11/28 02:08:42;;;;;;;0.50;0.50;;;1.90;90.60;;;;;;4958882;28;20057;-73
2023/11/28 02:11:07;;;;;;;2.20;0.80;;;1.90;90.90;;;;;;4994813;28;20041;-64
2023/11/28 02:13:34;;;;;;;0.70;0.70;;;1.90;90.50;;;;;;4990810;28;20113;-64
2023/11/28 02:16:09;;;;;;;1.77;0.90;;;1.90;90.70;;;;;;5005126;28;20371;-76
2023/11/28 02:18:35;;;;;;;1.35;0.88;;;1.80;91.10;;;;;;5009697;28;20096;-64
2023/11/28 02:21:01;;;;;;;3.80;0.90;;;1.80;90.10;;;;;;4997393;28;20046;-78
2023/11/28 02:23:27;;;;;;;2.35;0.63;;;1.80;92.60;;;;;;4993558;28;20046;-73
2023/11/28 02:25:56;;;;;;;4.25;0.90;;;1.80;92.00;;;;;;5009737;28;20447;-68
2023/11/28 02:28:25;;;;;;;0.98;0.90;;;1.70;91.40;;;;;;4997831;28;20451;-78
2023/11/28 02:30:56;;;;;;;0.85;0.55;;;1.70;92.20;;;;;;5010096;28;20053;-74
2023/11/28 02:33:23;;;;;;;1.25;0.88;;;1.70;93.30;;;;;;4985130;28;20403;-64
2023/11/28 02:35:49;;;;;;;1.45;0.80;;;1.80;92.70;;;;;;4964554;28;20520;-65
2023/11/28 02:38:15;;;;;;;6.18;1.02;;;1.80;93.90;;;;;;4975333;28;20054;-65
2023/11/28 02:40:41;;;;;;;4.50;1.30;;;1.90;94.00;;;;;;4977947;28;20448;-74
2023/11/28 02:43:07;;;;;;;2.80;0.68;;;1.90;93.90;;;;;;4976240;28;20046;-72
2023/11/28 02:45:33;;;;;;;8.07;1.15;;;1.90;94.70;;;;;;4973086;28;20088;-64
2023/11/28 02:47:59;;;;;;;3.33;1.25;;;2.00;96.70;;;;;;4982463;28;20046;-64
2023/11/28 02:50:25;;;;;;;1.40;0.80;;;2.00;95.00;;;;;;4985899;28;20103;-75
2023/11/28 02:52:51;;;;;;;3.33;1.55;;;2.10;95.50;;;;;;4976963;28;20047;-64
2023/11/28 02:55:17;;;;;;;1.63;0.98;;;2.20;97.50;;;;;;4969577;28;20432;-64
2023/11/28 02:57:44;;;;;;;6.38;1.27;;;2.10;93.80;;;;;;4981117;28;20047;-69
2023/11/28 03:00:10;;;;;;;4.68;0.95;;;2.20;93.20;;;;;;4987302;28;20438;-65
2023/11/28 03:02:36;;;;;;;3.97;1.23;;;2.20;91.80;;;;;;4978661;28;20050;-75
2023/11/28 03:05:03;;;;;;;2.67;0.65;;;2.20;81.60;;;;;;4968914;28;20100;-69
2023/11/28 03:07:28;;;;;;;1.23;0.70;;;2.20;79.80;;;;;;4983206;28;20129;-82
2023/11/28 03:09:54;;;;;;;0.98;0.82;;;2.20;77.80;;;;;;4968867;28;20056;-64
2023/11/28 03:12:20;;;;;;;1.20;0.70;;;2.20;71.90;;;;;;4983354;28;20366;-68
2023/11/28 03:14:46;;;;;;;3.05;0.50;;;2.20;69.10;;;;;;4987468;28;20046;-64
2023/11/28 03:17:11;;;;;;;4.47;0.90;;;2.20;65.20;;;;;;4978940;28;20370;-64
2023/11/28 03:19:37;;;;;;;4.63;1.00;;;2.30;65.70;;;;;;4981082;28;20046;-75
2023/11/28 03:22:03;;;;;;;0.73;0.68;;;2.30;66.00;;;;;;4971518;28;20051;-64
2023/11/28 03:24:29;;;;;;;0.93;0.88;;;2.30;67.30;;;;;;4951448;28;20050;-83
2023/11/28 03:26:55;;;;;;;1.63;1.20;;;2.30;69.80;;;;;;4940765;28;20185;-65
2023/11/28 03:29:21;;;;;;;3.03;0.98;;;2.20;70.70;;;;;;4985852;28;20047;-82
2023/11/28 03:31:46;;;;;;;1.92;1.25;;;2.30;75.10;;;;;;4952619;28;20049;-64
2023/11/28 03:34:12;;;;;;;3.08;1.20;;;2.30;76.50;;;;;;5008361;28;20106;-64
2023/11/28 03:36:38;;;;;;;1.63;1.23;;;2.30;81.30;;;;;;4990721;28;20049;-73
2023/11/28 03:39:05;;;;;;;0.77;0.77;;;2.20;84.10;;;;;;5009049;28;20053;-64
2023/11/28 03:41:32;;;;;;;4.57;1.10;;;2.30;88.30;;;;;;5000946;28;20056;-64
2023/11/28 03:43:58;;;;;;;5.18;1.70;;;2.20;90.00;;;;;;4991265;28;20048;-65
2023/11/28 03:46:24;;;;;;;1.75;1.20;;;2.20;93.10;;;;;;4993200;28;20046;-83
2023/11/28 03:48:50;;;;;;;1.02;1.00;;;2.20;91.80;;;;;;5009242;28;20572;-64
2023/11/28 03:51:16;;;;;;;10.40;1.65;;;2.20;92.60;;;;;;4989923;28;20455;-64
2023/11/28 03:53:42;;;;;;;3.53;2.00;;;2.10;96.10;;;;;;5003314;28;20054;-69
2023/11/28 03:56:09;;;;;;;5.05;1.50;;;2.10;99.90;;;;;;5007840;28;20081;-65
2023/11/28 03:58:35;;;;;;;6.15;1.40;;;1.90;99.90;;;;;;5009244;28;20065;-72
2023/11/28 04:01:02;;;;;;;1.13;1.05;;;1.90;99.90;;;;;;4990050;28;20073;-64
2023/11/28 04:03:28;;;;;;;2.08;1.17;;;1.80;99.90;;;;;;5009503;28;20044;-80
2023/11/28 04:05:55;;;;;;;2.05;1.52;;;1.80;99.90;;;;;;4990400;28;20050;-64
2023/11/28 04:08:21;;;;;;;1.50;1.40;;;1.70;99.90;;;;;;5009438;28;20079;-73
2023/11/28 04:10:46;;;;;;;4.75;1.67;;;1.70;99.90;;;;;;4989162;28;20551;-81
2023/11/28 04:13:12;;;;;;;6.20;1.20;;;1.70;99.90;;;;;;5000311;28;20048;-64
2023/11/28 04:15:38;;;;;;;2.05;1.23;;;1.70;99.90;;;;;;4989993;28;20382;-64
2023/11/28 04:18:05;;;;;;;3.40;1.45;;;1.60;99.90;;;;;;4989596;28;20052;-64
2023/11/28 04:20:31;;;;;;;3.85;1.27;;;1.60;99.90;;;;;;4985506;28;20041;-76
2023/11/28 04:22:56;;;;;;;3.78;1.30;;;1.70;99.90;;;;;;5002762;28;20178;-72
2023/11/28 04:25:23;;;;;;;3.80;1.35;;;1.70;99.90;;;;;;4991231;28;20789;-83
2023/11/28 04:27:49;;;;;;;3.45;1.60;;;1.70;99.90;;;;;;4988002;28;20125;-76
2023/11/28 04:30:15;;;;;;;3.88;1.30;;;1.70;99.90;;;;;;5001192;28;20105;-84
2023/11/28 04:32:41;;;;;;;1.65;1.40;;;1.70;99.90;;;;;;4987179;28;20053;-82
2023/11/28 04:35:07;;;;;;;2.72;1.48;;;1.70;99.90;;;;;;4985874;28;20133;-81
2023/11/28 04:37:33;;;;;;;1.58;1.08;;;1.70;99.90;;;;;;4999478;28;20045;-86
2023/11/28 04:39:58;;;;;;;2.92;1.65;;;1.70;99.90;;;;;;4987568;28;20559;-65
2023/11/28 04:42:24;;;;;;;3.25;1.35;;;1.80;99.90;;;;;;4988872;28;20601;-75
2023/11/28 04:44:50;;;;;;;2.70;1.58;;;1.80;99.90;;;;;;5004001;28;20049;-77
2023/11/28 04:47:16;;;;;;;3.72;1.77;;;1.90;99.90;;;;;;4985517;28;20042;-70
2023/11/28 04:49:42;;;;;;;2.85;1.70;;;1.90;99.90;;;;;;4971298;28;20049;-64
2023/11/28 04:52:08;;;;;;;3.70;1.42;;;1.90;99.90;;;;;;4986078;28;21906;-83
2023/11/28 04:54:34;;;;;;;1.45;1.35;;;1.80;99.90;;;;;;4989723;28;20472;-65
2023/11/28 04:57:00;;;;;;;2.30;1.27;;;1.80;99.90;;;;;;4992633;28;20079;-83
2023/11/28 04:59:26;;;;;;;3.15;1.30;;;1.80;99.90;;;;;;4973587;28;20128;-80
2023/11/28 05:01:52;;;;;;;3.75;1.67;;;1.70;99.90;;;;;;4997878;28;20533;-65
2023/11/28 05:04:18;;;;;;;1.63;1.15;;;1.80;99.90;;;;;;4989401;28;20092;-65
2023/11/28 05:06:43;;;;;;;4.78;1.48;;;1.80;99.90;;;;;;5006720;28;20054;-65
2023/11/28 05:09:10;;;;;;;2.25;1.52;;;1.70;99.90;;;;;;5002859;28;20038;-79
2023/11/28 05:11:37;;;;;;;2.78;1.50;;;1.70;99.90;;;;;;5002839;28;20057;-65
2023/11/28 05:14:03;;;;;;;5.00;1.90;;;1.70;99.90;;;;;;4999820;28;20120;-85
2023/11/28 05:16:30;;;;;;;2.17;1.52;;;1.70;99.90;;;;;;4999531;28;20185;-78
2023/11/28 05:18:56;;;;;;;4.78;1.65;;;1.70;99.90;;;;;;4992683;28;20100;-64
2023/11/28 05:21:22;;;;;;;6.25;1.38;;;1.80;99.90;;;;;;4988075;28;20042;-66
2023/11/28 05:23:47;;;;;;;2.35;1.42;;;1.80;99.90;;;;;;4998997;28;20436;-64
2023/11/28 05:26:13;;;;;;;1.58;1.42;;;1.80;99.90;;;;;;4985779;28;20080;-71
2023/11/28 05:28:38;;;;;;;4.32;1.50;;;1.80;99.90;;;;;;4988093;28;20050;-65
2023/11/28 05:31:04;;;;;;;5.88;1.50;;;1.80;99.90;;;;;;4993123;28;20054;-64
2023/11/28 05:33:30;;;;;;;1.67;1.45;;;1.80;99.90;;;;;;4987111;28;20057;-65
2023/11/28 05:35:56;;;;;;;4.45;1.92;;;1.80;99.90;;;;;;5002493;28;20052;-78
2023/11/28 05:38:21;;;;;;;13.13;1.35;;;1.80;99.90;;;;;;4999119;28;20192;-64
2023/11/28 05:40:47;;;;;;;1.27;1.23;;;1.80;99.90;;;;;;4996168;28;20042;-64
2023/11/28 05:43:13;;;;;;;2.78;1.67;;;1.80;99.90;;;;;;4997839;28;20404;-69
2023/11/28 05:45:38;;;;;;;2.83;1.50;;;1.80;99.90;;;;;;4989740;28;20054;-64
2023/11/28 05:48:04;;;;;;;1.70;1.15;;;1.90;99.90;;;;;;5002748;28;20746;-78
2023/11/28 05:50:30;;;;;;;4.30;0.98;;;1.80;99.90;;;;;;4989155;28;20046;-75
2023/11/28 05:52:56;;;;;;;0.90;0.90;;;1.60;99.90;;;;;;4972599;28;20120;-64
2023/11/28 05:55:22;;;;;;;0.65;0.60;;;1.50;99.90;;;;;;4988407;28;20577;-72
2023/11/28 05:57:50;;;;;;;1.85;0.60;;;1.30;99.90;;;;;;5005799;28;20041;-75
2023/11/28 06:00:17;;;;;;;0.65;0.65;;;1.10;99.90;;;;;;5006199;28;20037;-64
2023/11/28 06:02:44;;;;;;;0.80;0.80;;;1.10;99.90;;;;;;5003503;28;20054;-74
2023/11/28 06:05:10;;;;;;;0.60;0.60;;;1.00;99.90;;;;;;4998425;28;20056;-68
2023/11/28 06:07:36;;;;;;;1.00;0.82;;;1.00;99.90;;;;;;4987883;28;20463;-64
2023/11/28 06:10:04;;;;;;;3.53;1.10;;;1.10;99.90;;;;;;5002473;28;20088;-65
2023/11/28 06:12:30;;;;;;;4.78;1.00;;;1.20;99.90;;;;;;4996094;28;20504;-68
2023/11/28 06:14:56;;;;;;;2.25;1.08;;;1.30;99.90;;;;;;4988259;28;20054;-80
2023/11/28 06:17:21;;;;;;;2.75;1.38;;;1.30;99.90;;;;;;4985968;28;20058;-65
2023/11/28 06:19:47;;;;;;;0.90;0.90;;;1.30;99.90;;;;;;4960247;28;20137;-82
2023/11/28 06:22:13;;;;;;;1.65;0.88;;;1.20;99.90;;;;;;4998576;28;20034;-65
2023/11/28 06:24:39;;;;;;;0.82;0.77;;;1.20;99.90;;;;;;4988434;28;20038;-65
2023/11/28 06:27:05;;;;;;;0.65;0.38;;;1.10;99.90;;;;;;4992483;28;20120;-65
2023/11/28 06:29:32;;;;;;;2.65;0.28;;;1.00;99.90;;;;;;5003428;28;20053;-85
2023/11/28 06:31:59;;;;;;;1.23;0.80;;;1.00;99.90;;;;;;4972176;28;20574;-78
2023/11/28 06:34:26;;;;;;;0.90;0.70;;;1.10;99.90;;;;;;5000648;28;20133;-66
2023/11/28 06:36:52;;;;;;;0.88;0.88;;;1.10;99.90;;;;;;4991182;28;20621;-86
2023/11/28 06:39:18;;;;;;;1.23;1.17;;;1.10;99.90;;;;;;4995472;28;20050;-65
2023/11/28 06:41:47;;;;;;;0.77;0.77;;;1.10;99.90;;;;;;4988452;28;20505;-87
2023/11/28 06:44:13;;;;;;;2.38;1.38;;;1.10;99.90;;;;;;5004427;28;20119;-82
2023/11/28 06:46:40;;;;;;;1.50;1.00;;;1.00;99.90;;;;;;5002690;28;20526;-65
2023/11/28 06:49:06;;;;;;;1.95;1.40;;;1.00;99.90;;;;;;4998757;28;20508;-73
2023/11/28 06:51:32;;;;;;;1.33;1.23;;;1.10;99.90;;;;;;5005618;28;20427;-82
2023/11/28 06:53:58;;;;;;;5.78;1.42;;;1.10;99.90;;;;;;5000292;28;20424;-65
2023/11/28 06:56:24;;;;;;;1.17;1.08;;;1.10;99.90;;;;;;5000059;28;20470;-66
2023/11/28 06:58:51;;;;;;;2.45;1.70;;;1.20;99.90;;;;;;5002623;28;20113;-68
2023/11/28 07:01:17;;;;;;;1.73;1.33;;;1.10;99.90;;;;;;4991158;28;20495;-86
2023/11/28 07:03:43;;;;;;;1.70;1.42;;;1.10;99.90;;;;;;5001217;28;20046;-81
2023/11/28 07:06:09;;;;;;;1.50;1.02;;;1.10;99.90;;;;;;4992377;28;20100;-85
2023/11/28 07:08:35;;;;;;;1.10;0.90;;;1.20;99.90;;;;;;5001295;28;20129;-67
2023/11/28 07:11:02;;;;;;;3.25;1.83;;;1.20;99.90;;;;;;5003237;28;20084;-70
2023/11/28 07:13:27;;;;;;;3.10;0.90;;;1.10;99.90;;;;;;4974767;28;20635;-66
2023/11/28 07:15:53;;;;;;;1.48;1.00;;;1.20;99.90;;;;;;4993361;28;20046;-68
2023/11/28 07:18:22;;;;;;;1.98;1.20;;;1.10;99.90;;;;;;4974703;28;20046;-66
2023/11/28 07:20:49;;;;;;;0.77;0.77;;;1.10;99.90;;;;;;4977826;28;20042;-83
2023/11/28 07:23:17;;;;;;;1.38;1.27;;;1.10;99.90;;;;;;5001854;28;20501;-65
2023/11/28 07:25:44;;;;;;;0.57;0.57;;;1.10;99.90;;;;;;4990282;28;20405;-78
2023/11/28 07:28:10;;;;;;;6.15;1.75;;;1.20;99.90;;;;;;5002891;28;20899;-65
2023/11/28 07:30:35;;;;;;;1.00;1.00;;;1.10;99.90;;;;;;4997796;28;20129;-65
2023/11/28 07:33:01;;;;;;;1.10;1.02;;;1.20;99.90;;;;;;4987603;28;20046;-65
2023/11/28 07:35:27;;;;;;;1.60;1.50;;;1.20;99.90;;;;;;4995128;28;20425;-65
2023/11/28 07:37:52;;;;;;;4.72;1.40;;;1.20;99.90;;;;;;4975999;28;20111;-85
2023/11/28 07:40:18;;;;;;;1.08;0.90;;;1.20;99.90;;;;;;5001863;28;20042;-65
2023/11/28 07:42:44;;;;;;;2.78;1.20;;;1.20;99.90;;;;;;4995265;28;20376;-70
2023/11/28 07:45:10;;;;;;;1.33;1.05;;;1.20;99.90;;;;;;5003083;28;20038;-66
2023/11/28 07:47:36;;;;;;;2.35;1.20;;;1.20;99.90;;;;;;4999715;28;20057;-66
2023/11/28 07:50:02;;;;;;;0.80;0.80;;;1.20;99.90;;;;;;4991411;28;20493;-65
2023/11/28 07:52:28;;;;;;;5.90;1.33;;;1.20;99.90;;;;;;4985926;28;20052;-65
2023/11/28 07:54:54;;;;;;;2.97;1.30;;;1.20;99.90;;;;;;4996235;28;20042;-66
2023/11/28 07:57:19;;;;;;;1.23;0.95;;;1.20;99.90;;;;;;4990207;28;20367;-73
2023/11/28 07:59:46;;;;;;;1.40;0.85;;;1.20;99.90;;;;;;4989165;28;20053;-74
2023/11/28 08:02:13;;;;;;;3.05;0.77;;;1.20;99.90;;;;;;4990169;28;20041;-65
2023/11/28 08:04:39;;;;;;;2.08;1.02;;;1.10;99.90;;;;;;5007516;28;20128;-67
2023/11/28 08:07:04;;;;;;;1.10;1.05;;;1.10;99.90;;;;;;5008073;28;20169;-65
2023/11/28 08:09:30;;;;;;;2.22;1.50;;;1.20;99.90;;;;;;4989809;28;20388;-77
2023/11/28 08:11:56;;;;;;;1.95;1.00;;;1.20;99.90;;;;;;4989977;28;20046;-84
2023/11/28 08:14:22;;;;;;;1.50;1.02;;;1.20;99.90;;;;;;5007204;28;20089;-65
2023/11/28 08:16:48;;;;;;;5.07;1.08;;;1.20;99.90;;;;;;4998473;28;20039;-84
2023/11/28 08:19:14;;;;;;;1.98;0.93;;;1.20;99.90;;;;;;5000949;28;20080;-65
2023/11/28 08:21:39;;;;;;;3.42;0.63;;;1.10;99.90;;;;;;4970821;28;20512;-70
2023/11/28 08:24:05;;;;;;;1.05;0.82;;;1.20;99.90;;;;;;5002905;28;20049;-79
2023/11/28 08:26:31;;;;;;;4.65;1.23;;;1.20;99.90;;;;;;4989705;28;20508;-65
2023/11/28 08:28:58;;;;;;;0.93;0.75;;;1.20;99.90;;;;;;5005759;28;20045;-72
2023/11/28 08:31:24;;;;;;;4.05;1.17;;;1.10;99.90;;;;;;4999801;28;20112;-65
2023/11/28 08:33:50;;;;;;;5.32;0.88;;;1.10;99.90;;;;;;5006653;28;20149;-75
2023/11/28 08:36:16;;;;;;;2.70;0.80;;;1.10;99.90;;;;;;4989776;28;20061;-65
2023/11/28 08:38:42;;;;;;;1.40;0.90;;;1.10;99.90;;;;;;4992118;28;20057;-70
2023/11/28 08:41:07;;;;;;;0.70;0.70;;;1.10;99.80;;;;;;5006874;28;20440;-68
2023/11/28 08:43:33;;;;;;;4.28;0.75;;;1.20;98.70;;;;;;5007419;28;20224;-78
2023/11/28 08:45:59;;;;;;;1.55;0.80;;;1.20;96.30;;;;;;5008011;28;20050;-66
2023/11/28 08:48:25;;;;;;;0.98;0.73;;;1.20;95.00;;;;;;5003982;28;20045;-66
2023/11/28 08:50:51;;;;;;;5.47;0.70;;;1.30;94.30;;;;;;4985126;28;20160;-65
2023/11/28 08:53:16;;;;;;;3.92;0.80;;;1.30;93.70;;;;;;5005288;28;20042;-69
2023/11/28 08:55:45;;;;;;;1.15;0.70;;;1.40;93.10;;;;;;4988652;28;20049;-65
2023/11/28 08:58:11;;;;;;;2.45;1.10;;;1.40;90.90;;;;;;5005912;28;20060;-65
2023/11/28 09:00:37;;;;;;;1.33;0.80;;;1.30;89.20;;;;;;5007688;28;20088;-72
2023/11/28 09:03:03;;;;;;;1.80;0.73;;;1.30;89.20;;;;;;5004705;28;20045;-81
2023/11/28 09:05:29;;;;;;;2.05;0.70;;;1.40;80.40;;;;;;5005663;28;20045;-65
2023/11/28 09:07:57;;;;;;;3.75;0.75;;;1.30;79.60;;;;;;5005139;28;20534;-65
2023/11/28 09:10:23;;;;;;;1.65;0.55;;;1.40;79.50;;;;;;5006430;28;20177;-77
2023/11/28 09:12:49;;;;;;;0.82;0.52;;;1.40;81.80;;;;;;4989810;28;20054;-66
2023/11/28 09:15:16;;;;;;;2.63;0.98;;;1.40;82.60;;;;;;5006448;28;20385;-65
2023/11/28 09:17:42;;;;;;;5.63;0.80;;;1.50;83.20;;;;;;5006908;28;20042;-65
2023/11/28 09:20:09;;;;;;;1.38;0.75;;;1.50;81.40;;;;;;5005538;28;20042;-65
2023/11/28 09:22:35;;;;;;;4.07;0.75;;;1.40;71.70;;;;;;5007103;28;20419;-80
2023/11/28 09:25:01;;;;;;;4.13;0.73;;;1.40;68.10;;;;;;5004307;28;20115;-65
2023/11/28 09:27:27;;;;;;;1.05;0.60;;;1.40;69.30;;;;;;5012843;28;20053;-67
2023/11/28 09:29:53;;;;;;;2.78;0.60;;;1.40;70.50;;;;;;5005203;28;20042;-65
2023/11/28 09:32:19;;;;;;;0.60;0.60;;;1.40;69.60;;;;;;4987800;28;20562;-77
2023/11/28 09:34:45;;;;;;;0.45;0.45;;;1.50;71.30;;;;;;5003910;28;20037;-67
2023/11/28 09:37:11;;;;;;;1.25;0.68;;;1.50;64.90;;;;;;4988196;28;20053;-65
2023/11/28 09:39:38;;;;;;;1.42;0.70;;;1.50;59.90;;;;;;5005797;28;21069;-66
2023/11/28 09:42:10;;;;;;;5.18;0.82;;;1.50;61.00;;;;;;5006550;28;20185;-68
2023/11/28 09:44:36;;;;;;;0.73;0.55;;;1.50;58.20;;;;;;5005894;28;20038;-66
2023/11/28 09:47:10;;;;;;;0.60;0.60;;;1.50;59.70;;;;;;5005948;28;20042;-85
2023/11/28 09:49:43;;;;;;;0.45;0.45;;;1.60;53.40;;;;;;5005594;28;20041;-65
2023/11/28 09:52:16;;;;;;;0.77;0.63;;;1.60;56.30;;;;;;4982129;28;20108;-66
2023/11/28 09:54:45;;;;;;;4.57;0.63;;;1.60;50.00;;;;;;4984879;28;20077;-66
2023/11/28 09:57:12;;;;;;;0.50;0.43;;;1.70;48.90;;;;;;5006005;28;20048;-65
2023/11/28 09:59:38;;;;;;;1.30;0.40;;;1.70;55.50;;;;;;5006702;28;20540;-66
2023/11/28 10:02:07;;;;;;;3.17;0.60;;;1.70;53.40;;;;;;5003187;28;20054;-70
2023/11/28 10:04:34;;;;;;;0.50;0.50;;;1.70;48.40;;;;;;5007228;28;20041;-65
2023/11/28 10:07:06;;;;;;;4.47;0.70;;;1.70;43.10;;;;;;5005057;28;20050;-70
2023/11/28 10:09:32;;;;;;;0.50;0.50;;;1.70;39.40;;;;;;4999031;28;20084;-65
2023/11/28 10:12:09;;;;;;;0.40;0.40;;;1.70;42.40;;;;;;5004501;28;20535;-65
2023/11/28 10:14:39;;;;;;;1.95;0.70;;;1.70;42.20;;;;;;5006114;28;20050;-85
2023/11/28 10:17:04;;;;;;;0.70;0.40;;;1.80;44.80;;;;;;5005058;28;20046;-65
2023/11/28 10:19:30;;;;;;;0.57;0.57;;;1.80;46.60;;;;;;5006414;28;20049;-72
2023/11/28 10:21:56;;;;;;;1.90;0.75;;;1.80;43.00;;;;;;4987173;28;20532;-66
2023/11/28 10:24:22;;;;;;;5.55;0.85;;;1.80;43.20;;;;;;5009302;28;20053;-80
2023/11/28 10:26:48;;;;;;;0.85;0.60;;;1.90;46.30;;;;;;5008454;28;20524;-73
2023/11/28 10:29:17;;;;;;;0.73;0.63;;;1.90;42.00;;;;;;4990714;28;20048;-65
2023/11/28 10:31:43;;;;;;;0.47;0.47;;;1.80;37.80;;;;;;4990944;28;20056;-65
2023/11/28 10:34:09;;;;;;;1.73;0.60;;;1.80;39.10;;;;;;5007952;28;20047;-69
2023/11/28 10:36:44;;;;;;;0.35;0.35;;;1.80;46.90;;;;;;5006958;28;20045;-65
2023/11/28 10:39:11;;;;;;;0.43;0.40;;;1.80;47.00;;;;;;5009793;28;20050;-65
2023/11/28 10:41:38;;;;;;;2.25;0.70;;;1.80;49.30;;;;;;5008823;28;20069;-65
2023/11/28 10:44:04;;;;;;;1.67;0.75;;;1.80;47.90;;;;;;5008357;28;20409;-65
2023/11/28 10:46:34;;;;;;;1.52;0.60;;;1.80;40.90;;;;;;5008240;28;20037;-86
2023/11/28 10:49:00;;;;;;;3.28;0.93;;;1.70;38.60;;;;;;5008949;28;20069;-66
2023/11/28 10:51:29;;;;;;;1.15;0.57;;;1.70;34.30;;;;;;5006045;28;20073;-69
2023/11/28 10:54:17;;;;;;;5.22;0.70;;;1.70;42.10;;;;;;5007576;28;20089;-65
2023/11/28 10:56:52;;;;;;;1.90;0.70;;;1.70;44.90;;;;;;5006774;28;20088;-83
2023/11/28 10:59:26;;;;;;;4.72;1.02;;;1.70;46.00;;;;;;5007240;28;20049;-65
2023/11/28 11:01:52;;;;;;;0.70;0.70;;;1.80;48.20;;;;;;5005683;28;20045;-66
2023/11/28 11:04:18;;;;;;;1.70;1.48;;;1.80;48.40;;;;;;5008688;28;20084;-66
2023/11/28 11:06:44;;;;;;;0.75;0.70;;;1.80;53.50;;;;;;5007013;28;20047;-65
2023/11/28 11:09:11;;;;;;;0.82;0.80;;;1.90;50.70;;;;;;5009168;28;20590;-81
2023/11/28 11:11:38;;;;;;;0.88;0.80;;;1.80;32.50;;;;;;5003868;28;20053;-65
2023/11/28 11:14:41;;;;;;;0.80;0.80;;;1.80;33.50;;;;;;4989995;28;20077;-87
2023/11/28 11:17:36;;;;;;;1.48;0.70;;;1.80;30.80;;;;;;4987762;28;20439;-84
2023/11/28 11:20:04;;;;;;;0.60;0.60;;;1.80;35.40;;;;;;5008611;28;20093;-65
2023/11/28 11:22:35;;;;;;;1.95;0.90;;;1.80;34.20;;;;;;5003769;28;20404;-71
2023/11/28 11:25:03;;;;;;;3.33;0.82;;;1.80;39.00;;;;;;5007245;28;20125;-66
2023/11/28 11:27:29;;;;;;;2.35;1.00;;;1.80;40.90;;;;;;5008031;28;20441;-65
2023/11/28 11:29:55;;;;;;;0.80;0.80;;;1.90;42.00;;;;;;5008257;28;20411;-71
2023/11/28 11:32:22;;;;;;;1.20;0.60;;;1.90;41.80;;;;;;5006584;28;20112;-65
2023/11/28 11:34:49;;;;;;;0.55;0.55;;;1.90;42.30;;;;;;5006522;28;20042;-65
2023/11/28 11:37:19;;;;;;;2.85;0.90;;;2.00;41.10;;;;;;5007800;28;20107;-68
2023/11/28 11:39:51;;;;;;;1.02;0.73;;;2.00;37.10;;;;;;5009386;28;20137;-65
2023/11/28 11:42:19;;;;;;;0.63;0.63;;;2.00;30.60;;;;;;5003852;28;20060;-88
2023/11/28 11:44:51;;;;;;;0.60;0.60;;;1.90;28.50;;;;;;5008826;28;20084;-73
2023/11/28 11:47:22;;;;;;;1.77;0.77;;;1.90;29.10;;;;;;5006735;28;20053;-65
2023/11/28 11:49:49;;;;;;;0.88;0.70;;;1.90;31.30;;;;;;5008403;28;20396;-65
2023/11/28 11:52:16;;;;;;;1.30;0.88;;;1.90;32.00;;;;;;5004887;28;20400;-65
2023/11/28 11:54:43;;;;;;;0.57;0.57;;;1.90;29.70;;;;;;5008254;28;20300;-79
2023/11/28 11:57:09;;;;;;;1.45;0.98;;;2.00;35.80;;;;;;5000565;28;20042;-68
2023/11/28 11:59:35;;;;;;;0.75;0.70;;;2.10;37.60;;;;;;4983337;28;20444;-76
2023/11/28 12:02:01;;;;;;;3.70;0.60;;;2.10;37.70;;;;;;5005435;28;20041;-65
2023/11/28 12:04:28;;;;;;;3.63;0.82;;;2.20;38.80;;;;;;5008321;28;20095;-70
2023/11/28 12:07:06;;;;;;;0.77;0.77;;;2.20;31.60;;;;;;5005779;28;20049;-72
2023/11/28 12:09:33;;;;;;;2.95;1.00;;;2.20;31.30;;;;;;4990528;28;20046;-68
2023/11/28 12:11:59;;;;;;;1.23;1.13;;;2.20;35.20;;;;;;5002905;28;20092;-66
2023/11/28 12:14:25;;;;;;;4.97;0.50;;;2.20;30.10;;;;;;5007599;28;20042;-77
2023/11/28 12:16:54;;;;;;;1.23;0.77;;;2.20;28.10;;;;;;5004849;28;20046;-65
2023/11/28 12:19:20;;;;;;;1.83;0.80;;;2.20;31.30;;;;;;5006579;28;20515;-80
2023/11/28 12:21:46;;;;;;;0.70;0.70;;;2.20;33.70;;;;;;5005090;28;20054;-83
2023/11/28 12:24:12;;;;;;;0.88;0.88;;;2.20;29.90;;;;;;5006243;28;20042;-65
2023/11/28 12:26:42;;;;;;;1.85;0.70;;;2.20;31.10;;;;;;5006617;28;20132;-64
2023/11/28 12:29:08;;;;;;;1.92;0.68;;;2.20;32.60;;;;;;5006058;28;20478;-65
2023/11/28 12:31:35;;;;;;;1.15;0.82;;;2.10;31.30;;;;;;5007453;28;20050;-77
2023/11/28 12:34:00;;;;;;;1.95;0.77;;;2.20;31.70;;;;;;5006764;28;20046;-71
2023/11/28 12:36:29;;;;;;;1.35;0.93;;;2.20;33.50;;;;;;4988952;28;20099;-65
2023/11/28 12:38:59;;;;;;;1.35;0.80;;;2.30;29.50;;;;;;4999362;28;20052;-81
2023/11/28 12:41:37;;;;;;;7.80;0.80;;;2.30;26.70;;;;;;5006286;28;20050;-65
2023/11/28 12:44:13;;;;;;;3.33;0.75;;;2.40;26.90;;;;;;4980756;28;20053;-66
2023/11/28 12:46:39;;;;;;;3.20;1.15;;;2.50;27.50;;;;;;5005050;28;20045;-65
2023/11/28 12:49:06;;;;;;;2.13;0.75;;;2.60;17.10;;;;;;5007119;28;20082;-66
2023/11/28 12:51:32;;;;;;;1.00;0.70;;;2.70;18.00;;;;;;5005618;28;20046;-65
2023/11/28 12:54:09;;;;;;;1.40;0.70;;;2.70;8.10;;;;;;5006078;28;20054;-70
2023/11/28 12:56:36;;;;;;;2.08;0.70;;;2.60;4.90;;;;;;5004910;28;20499;-65